Time;durP1;ratioP1;P1;durP2;ratioP2;P2;SDS_P1;SDS_P2;PMS_P1;PMS_P2;Temp;Humidity;BMP_temperature;BMP_pressure;BME280_temperature;BME280_humidity;BME280_pressure;Samples;Min_cycle;Max_cycle;Signal;HPM_P1;HPM_P2
2022/12/20 00:00:59;;;;;;;;;;;;;;;-0.57;100.00;101286.16;4944278;28;19926;-76
2022/12/20 00:03:25;;;;;;;;;;;;;;;-0.54;100.00;101286.09;4944093;28;19957;-75
2022/12/20 00:05:50;;;;;;;;;;;;;;;-0.50;100.00;101282.56;4945600;28;19922;-76
2022/12/20 00:08:16;;;;;;;;;;;;;;;-0.46;100.00;101279.00;4941705;28;19922;-75
2022/12/20 00:10:43;;;;;;;;;;;;;;;-0.46;100.00;101271.22;4945515;28;19922;-75
2022/12/20 00:13:09;;;;;;;;;;;;;;;-0.43;100.00;101276.38;4947825;28;20290;-75
2022/12/20 00:15:34;;;;;;;;;;;;;;;-0.42;100.00;101275.47;4942291;28;20128;-75
2022/12/20 00:18:00;;;;;;;;;;;;;;;-0.38;100.00;101267.63;4944727;28;19926;-76
2022/12/20 00:20:26;;;;;;;;;;;;;;;-0.34;100.00;101266.66;4943050;28;19923;-75
2022/12/20 00:22:53;;;;;;;;;;;;;;;-0.35;100.00;101260.63;4942982;28;19922;-75
2022/12/20 00:25:19;;;;;;;;;;;;;;;-0.38;100.00;101265.03;4937871;28;19923;-75
2022/12/20 00:27:47;;;;;;;;;;;;;;;-0.31;100.00;101266.59;4942939;28;19933;-75
2022/12/20 00:30:12;;;;;;;;;;;;;;;-0.31;100.00;101262.28;4943934;28;20355;-75
2022/12/20 00:32:40;;;;;;;;;;;;;;;-0.37;100.00;101261.56;4943682;28;19922;-75
2022/12/20 00:35:07;;;;;;;;;;;;;;;-0.41;100.00;101253.81;4942632;28;20290;-76
2022/12/20 00:37:33;;;;;;;;;;;;;;;-0.42;100.00;101253.88;4944562;28;19964;-76
2022/12/20 00:39:58;;;;;;;;;;;;;;;-0.38;100.00;101254.66;4927317;28;19962;-76
2022/12/20 00:42:23;;;;;;;;;;;;;;;-0.34;100.00;101245.91;4944177;28;19923;-75
2022/12/20 00:44:49;;;;;;;;;;;;;;;-0.37;100.00;101252.03;4942710;28;19988;-77
2022/12/20 00:47:14;;;;;;;;;;;;;;;-0.39;100.00;101250.34;4946381;28;19929;-76
2022/12/20 00:49:40;;;;;;;;;;;;;;;-0.35;100.00;101249.41;4943417;28;19930;-76
2022/12/20 00:52:05;;;;;;;;;;;;;;;-0.37;100.00;101251.19;4944568;28;19923;-75
2022/12/20 00:54:31;;;;;;;;;;;;;;;-0.40;100.00;101252.09;4940059;29;19930;-75
2022/12/20 00:56:56;;;;;;;;;;;;;;;-0.43;100.00;101246.97;4943595;28;19989;-76
2022/12/20 00:59:22;;;;;;;;;;;;;;;-0.41;100.00;101246.03;4944766;28;19923;-76
2022/12/20 01:01:49;;;;;;;;;;;;;;;-0.42;100.00;101239.16;4935249;28;20646;-75
2022/12/20 01:04:15;;;;;;;;;;;;;;;-0.40;100.00;101231.34;4944352;28;19934;-75
2022/12/20 01:06:41;;;;;;;;;;;;;;;-0.42;100.00;101234.00;4940493;28;19982;-75
2022/12/20 01:09:06;;;;;;;;;;;;;;;-0.39;100.00;101224.41;4943373;28;20429;-75
2022/12/20 01:11:34;;;;;;;;;;;;;;;-0.42;100.00;101228.78;4945063;28;20352;-75
2022/12/20 01:14:01;;;;;;;;;;;;;;;-0.47;100.00;101224.56;4939106;29;19934;-76
2022/12/20 01:16:28;;;;;;;;;;;;;;;-0.48;100.00;101223.75;4940669;28;19944;-75
2022/12/20 01:18:54;;;;;;;;;;;;;;;-0.53;100.00;101229.91;4944195;28;19977;-76
2022/12/20 01:21:20;;;;;;;;;;;;;;;-0.59;100.00;101230.03;4945766;28;19930;-76
2022/12/20 01:23:47;;;;;;;;;;;;;;;-0.59;100.00;101230.88;4943563;28;20341;-76
2022/12/20 01:26:13;;;;;;;;;;;;;;;-0.65;100.00;101231.03;4944439;28;20294;-75
2022/12/20 01:28:40;;;;;;;;;;;;;;;-0.66;100.00;101234.50;4924752;28;19926;-75
2022/12/20 01:31:07;;;;;;;;;;;;;;;-0.67;100.00;101235.38;4941017;28;19930;-75
2022/12/20 01:33:33;;;;;;;;;;;;;;;-0.66;100.00;101229.31;4942357;29;20286;-76
2022/12/20 01:35:59;;;;;;;;;;;;;;;-0.71;100.00;101227.69;4943881;28;20009;-75
2022/12/20 01:38:25;;;;;;;;;;;;;;;-0.67;100.00;101222.41;4944034;28;19922;-76
2022/12/20 01:40:51;;;;;;;;;;;;;;;-0.74;100.00;101215.63;4943160;28;19923;-75
2022/12/20 01:43:17;;;;;;;;;;;;;;;-0.73;100.00;101214.75;4945022;28;19937;-76
2022/12/20 01:45:42;;;;;;;;;;;;;;;-0.85;100.00;101217.59;4942221;28;19934;-75
2022/12/20 01:48:08;;;;;;;;;;;;;;;-0.94;100.00;101218.63;4944114;28;20022;-76
2022/12/20 01:50:34;;;;;;;;;;;;;;;-1.00;100.00;101217.91;4940422;28;19930;-77
2022/12/20 01:53:02;;;;;;;;;;;;;;;-0.97;100.00;101223.88;4944188;28;19929;-76
2022/12/20 01:55:29;;;;;;;;;;;;;;;-1.03;100.00;101217.97;4941882;28;20401;-77
2022/12/20 01:57:54;;;;;;;;;;;;;;;-1.05;100.00;101215.38;4942836;28;19923;-76
2022/12/20 02:00:20;;;;;;;;;;;;;;;-1.05;100.00;101215.38;4941704;28;20321;-75
2022/12/20 02:02:47;;;;;;;;;;;;;;;-1.04;100.00;101216.25;4950696;28;20017;-76
2022/12/20 02:05:13;;;;;;;;;;;;;;;-0.97;100.00;101212.66;4945723;28;19992;-76
2022/12/20 02:07:40;;;;;;;;;;;;;;;-0.92;100.00;101211.69;4943966;28;20389;-76
2022/12/20 02:10:08;;;;;;;;;;;;;;;-0.94;100.00;101202.22;4941273;28;20298;-75
2022/12/20 02:12:39;;;;;;;;;;;;;;;-0.90;100.00;101196.09;4943864;28;19976;-76
2022/12/20 02:15:19;;;;;;;;;;;;;;;-1.01;100.00;101200.66;4943378;28;19922;-76
2022/12/20 02:18:11;;;;;;;;;;;;;;;-0.95;100.00;101190.16;4947971;28;19922;-76
2022/12/20 02:20:42;;;;;;;;;;;;;;;-0.96;100.00;101188.47;4941429;28;20044;-76
2022/12/20 02:23:27;;;;;;;;;;;;;;;-0.99;100.00;101184.19;4945687;28;20268;-75
2022/12/20 02:26:11;;;;;;;;;;;;;;;-1.02;100.00;101183.41;4937108;28;20282;-75
2022/12/20 02:28:55;;;;;;;;;;;;;;;-1.00;100.00;101181.63;4941923;28;19930;-76
2022/12/20 02:31:25;;;;;;;;;;;;;;;-0.96;100.00;101185.88;4944544;28;19958;-76
2022/12/20 02:33:51;;;;;;;;;;;;;;;-0.98;100.00;101185.03;4941055;28;20352;-76
2022/12/20 02:36:17;;;;;;;;;;;;;;;-1.05;100.00;101183.44;4947799;28;20445;-76
2022/12/20 02:38:44;;;;;;;;;;;;;;;-1.10;100.00;101174.91;4943297;28;19934;-76
2022/12/20 02:41:21;;;;;;;;;;;;;;;-1.11;100.00;101183.56;4945779;28;19989;-76
2022/12/20 02:46:36;;;;;;;;;;;;;;;-0.99;100.00;101178.13;4943930;28;19923;-76
2022/12/20 02:49:08;;;;;;;;;;;;;;;-0.99;100.00;101178.13;4940822;28;19923;-74
2022/12/20 02:51:33;;;;;;;;;;;;;;;-1.04;100.00;101174.78;4943971;28;19937;-75
2022/12/20 02:53:59;;;;;;;;;;;;;;;-0.99;100.00;101171.22;4942286;28;20009;-75
2022/12/20 02:56:34;;;;;;;;;;;;;;;-0.91;100.00;101173.66;4945141;28;19923;-75
2022/12/20 02:59:19;;;;;;;;;;;;;;;-0.90;100.00;101172.78;4945110;29;19923;-76
2022/12/20 03:01:53;;;;;;;;;;;;;;;-0.87;100.00;101167.53;4944188;28;19927;-76
2022/12/20 03:04:22;;;;;;;;;;;;;;;-0.81;100.00;101167.41;4946221;28;19923;-76
2022/12/20 03:07:14;;;;;;;;;;;;;;;-0.80;100.00;101174.28;4944760;28;20294;-75
2022/12/20 03:09:41;;;;;;;;;;;;;;;-0.75;100.00;101180.22;4926653;28;19934;-78
2022/12/20 03:12:08;;;;;;;;;;;;;;;-0.77;100.00;101174.25;4945860;28;20370;-75
2022/12/20 03:14:35;;;;;;;;;;;;;;;-0.74;100.00;101168.97;4941522;28;19922;-76
2022/12/20 03:17:04;;;;;;;;;;;;;;;-0.69;100.00;101172.31;4945929;28;19936;-75
2022/12/20 03:19:29;;;;;;;;;;;;;;;-0.64;100.00;101164.44;4947294;29;20483;-75
2022/12/20 03:21:56;;;;;;;;;;;;;;;-0.59;100.00;101167.81;4940508;29;20302;-74
2022/12/20 03:24:21;;;;;;;;;;;;;;;-0.61;100.00;101169.56;4934546;28;19926;-75
2022/12/20 03:26:47;;;;;;;;;;;;;;;-0.60;100.00;101150.53;4942395;28;20650;-74
2022/12/20 03:29:14;;;;;;;;;;;;;;;-0.57;100.00;101146.13;4942568;28;20357;-74
2022/12/20 03:31:40;;;;;;;;;;;;;;;-0.58;100.00;101152.19;4943197;28;19927;-74
2022/12/20 03:34:05;;;;;;;;;;;;;;;-0.59;100.00;101150.50;4942709;28;19923;-75
2022/12/20 03:36:33;;;;;;;;;;;;;;;-0.63;100.00;101150.59;4945096;28;19926;-75
2022/12/20 03:39:01;;;;;;;;;;;;;;;-0.63;100.00;101137.63;4946810;28;20041;-73
2022/12/20 03:41:30;;;;;;;;;;;;;;;-0.75;100.00;101138.75;4939924;28;19927;-76
2022/12/20 03:43:58;;;;;;;;;;;;;;;-0.77;100.00;101143.16;4943978;28;19923;-75
2022/12/20 03:46:24;;;;;;;;;;;;;;;-0.85;100.00;101139.84;4945634;28;20270;-75
2022/12/20 03:48:50;;;;;;;;;;;;;;;-1.21;100.00;101145.78;4940345;28;20309;-75
2022/12/20 03:51:15;;;;;;;;;;;;;;;-1.28;100.00;101147.63;4939024;28;19919;-76
2022/12/20 03:53:41;;;;;;;;;;;;;;;-1.27;100.00;101132.06;4921366;29;19922;-76
2022/12/20 03:56:07;;;;;;;;;;;;;;;-1.19;100.00;101141.44;4937659;28;19929;-75
2022/12/20 03:58:33;;;;;;;;;;;;;;;-1.12;100.00;101137.84;4941308;28;20293;-76
2022/12/20 04:00:59;;;;;;;;;;;;;;;-1.14;100.00;101124.06;4941800;28;19923;-75
2022/12/20 04:03:43;;;;;;;;;;;;;;;-1.06;100.00;101135.13;4940933;28;19930;-75
2022/12/20 04:06:08;;;;;;;;;;;;;;;-1.06;100.00;101132.53;4943816;28;20248;-75
2022/12/20 04:08:34;;;;;;;;;;;;;;;-0.99;100.00;101126.31;4941861;28;19927;-75
2022/12/20 04:11:18;;;;;;;;;;;;;;;-0.97;100.00;101134.94;4943793;29;19927;-74
2022/12/20 04:14:06;;;;;;;;;;;;;;;-1.19;100.00;101139.69;4942726;28;19930;-75
2022/12/20 04:16:32;;;;;;;;;;;;;;;-1.34;100.00;101139.97;4940834;28;19923;-75
2022/12/20 04:18:59;;;;;;;;;;;;;;;-1.27;100.00;101126.88;4943063;28;19929;-75
2022/12/20 04:21:30;;;;;;;;;;;;;;;-1.19;100.00;101123.31;4927618;28;19925;-75
2022/12/20 04:23:57;;;;;;;;;;;;;;;-1.14;100.00;101117.13;4923357;28;20272;-74
2022/12/20 04:26:27;;;;;;;;;;;;;;;-1.05;100.00;101121.25;4945301;28;20286;-74
2022/12/20 04:28:53;;;;;;;;;;;;;;;-1.17;100.00;101127.53;4940359;29;19926;-75
2022/12/20 04:31:18;;;;;;;;;;;;;;;-1.16;100.00;101113.72;4945865;28;19918;-75
2022/12/20 04:33:45;;;;;;;;;;;;;;;-1.11;100.00;101122.25;4944893;28;19934;-75
2022/12/20 04:36:10;;;;;;;;;;;;;;;-1.05;100.00;101108.31;4943022;28;20278;-74
2022/12/20 04:38:39;;;;;;;;;;;;;;;-1.02;100.00;101105.66;4942104;28;20013;-75
2022/12/20 04:41:04;;;;;;;;;;;;;;;-1.01;100.00;101107.38;4942871;28;20009;-74
2022/12/20 04:43:40;;;;;;;;;;;;;;;-1.00;100.00;101103.91;4942163;28;20405;-75
2022/12/20 04:46:06;;;;;;;;;;;;;;;-1.02;100.00;101110.84;4943189;28;19937;-75
2022/12/20 04:48:31;;;;;;;;;;;;;;;-1.00;100.00;101119.47;4942276;28;20013;-73
2022/12/20 04:50:57;;;;;;;;;;;;;;;-1.00;100.00;101109.09;4945538;28;20024;-74
2022/12/20 04:56:08;;;;;;;;;;;;;;;-0.95;100.00;101109.84;4942321;28;19925;-74
2022/12/20 04:58:34;;;;;;;;;;;;;;;-0.97;100.00;101103.81;4942714;28;19922;-74
2022/12/20 05:01:02;;;;;;;;;;;;;;;-1.01;100.00;101102.19;4943933;28;19925;-75
2022/12/20 05:03:34;;;;;;;;;;;;;;;-1.16;100.00;101092.13;4943484;28;19918;-75
2022/12/20 05:05:59;;;;;;;;;;;;;;;-1.15;100.00;101086.94;4938733;29;19929;-74
2022/12/20 05:08:25;;;;;;;;;;;;;;;-1.11;100.00;101095.47;4942106;28;19925;-74
2022/12/20 05:10:52;;;;;;;;;;;;;;;-1.15;100.00;101104.22;4943580;28;19957;-75
2022/12/20 05:13:17;;;;;;;;;;;;;;;-1.20;100.00;101108.63;4942840;28;20408;-74
2022/12/20 05:15:44;;;;;;;;;;;;;;;-1.16;100.00;101107.69;4942109;28;19932;-74
2022/12/20 05:18:10;;;;;;;;;;;;;;;-1.13;100.00;101107.63;4927512;29;19965;-75
2022/12/20 05:26:35;;;;;;;;;;;;;;;-1.34;100.00;101114.94;4942194;28;19968;-74
2022/12/20 05:29:02;;;;;;;;;;;;;;;-1.34;100.00;101114.94;4942502;28;19919;-74
2022/12/20 05:31:28;;;;;;;;;;;;;;;-1.37;100.00;101115.00;4939847;28;19921;-75
2022/12/20 05:33:53;;;;;;;;;;;;;;;-1.44;100.00;101108.25;4943476;28;19925;-76
2022/12/20 05:36:20;;;;;;;;;;;;;;;-1.38;100.00;101105.53;4933880;28;19918;-76
2022/12/20 05:38:47;;;;;;;;;;;;;;;-1.35;100.00;101113.22;4942166;28;19919;-77
2022/12/20 05:41:15;;;;;;;;;;;;;;;-1.29;100.00;101107.94;4940555;28;20298;-76
2022/12/20 05:43:43;;;;;;;;;;;;;;;-1.29;100.00;101105.34;4940360;28;19924;-76
2022/12/20 05:46:09;;;;;;;;;;;;;;;-1.34;100.00;101112.34;4942369;28;19919;-77
2022/12/20 05:48:46;;;;;;;;;;;;;;;-1.47;100.00;101105.69;4939870;28;19997;-76
2022/12/20 05:51:12;;;;;;;;;;;;;;;-1.46;100.00;101104.81;4941196;28;19961;-76
2022/12/20 05:54:00;;;;;;;;;;;;;;;-1.50;100.00;101098.00;4938265;28;19930;-76
2022/12/20 05:56:43;;;;;;;;;;;;;;;-1.60;100.00;101095.63;4943907;28;19923;-77
2022/12/20 05:59:08;;;;;;;;;;;;;;;-1.56;100.00;101092.09;4940895;28;19919;-77
2022/12/20 06:01:35;;;;;;;;;;;;;;;-1.55;100.00;101112.78;4942393;28;20268;-76
2022/12/20 06:04:01;;;;;;;;;;;;;;;-1.54;100.00;101105.88;4941721;28;19966;-76
2022/12/20 06:06:27;;;;;;;;;;;;;;;-1.54;100.00;101101.53;4944402;28;19924;-76
2022/12/20 06:08:55;;;;;;;;;;;;;;;-1.52;100.00;101098.91;4945899;28;20012;-77
2022/12/20 06:11:31;;;;;;;;;;;;;;;-1.51;100.00;101095.44;4933086;29;19984;-76
2022/12/20 06:14:02;;;;;;;;;;;;;;;-1.54;100.00;101091.19;4941544;28;19925;-75
2022/12/20 06:16:28;;;;;;;;;;;;;;;-1.52;100.00;101094.59;4943928;28;19922;-79
2022/12/20 06:18:55;;;;;;;;;;;;;;;-1.50;100.00;101098.00;4941296;28;20006;-74
2022/12/20 06:21:21;;;;;;;;;;;;;;;-1.51;100.00;101088.53;4937417;28;20334;-74
2022/12/20 06:23:47;;;;;;;;;;;;;;;-1.52;100.00;101102.34;4937459;28;20363;-75
2022/12/20 06:26:15;;;;;;;;;;;;;;;-1.51;100.00;101091.13;4936749;28;19932;-75
2022/12/20 06:28:51;;;;;;;;;;;;;;;-1.48;100.00;101098.84;4935105;28;20041;-75
2022/12/20 06:31:19;;;;;;;;;;;;;;;-1.47;100.00;101095.34;4937407;29;20079;-75
2022/12/20 06:33:51;;;;;;;;;;;;;;;-1.49;100.00;101099.72;4930584;28;20598;-74
2022/12/20 06:36:19;;;;;;;;;;;;;;;-1.57;100.00;101105.91;4934818;28;19918;-76
2022/12/20 06:38:44;;;;;;;;;;;;;;;-1.65;100.00;101093.13;4933241;28;19933;-75
2022/12/20 06:41:10;;;;;;;;;;;;;;;-1.58;100.00;101086.94;4934601;29;19923;-78
2022/12/20 06:43:35;;;;;;;;;;;;;;;-1.58;100.00;101084.34;4932898;28;20370;-77
2022/12/20 06:46:01;;;;;;;;;;;;;;;-1.66;100.00;101086.25;4935879;28;20374;-78
2022/12/20 06:48:26;;;;;;;;;;;;;;;-1.75;100.00;101086.41;4936474;28;19966;-77
2022/12/20 06:50:52;;;;;;;;;;;;;;;-1.75;100.00;101081.22;4937038;28;19919;-75
2022/12/20 06:53:18;;;;;;;;;;;;;;;-1.72;100.00;101086.34;4932081;28;19919;-75
2022/12/20 06:55:46;;;;;;;;;;;;;;;-1.71;100.00;101093.25;4938508;28;19933;-78
2022/12/20 06:58:12;;;;;;;;;;;;;;;-1.72;100.00;101086.34;4942784;28;19949;-77
2022/12/20 07:00:37;;;;;;;;;;;;;;;-1.76;100.00;101084.69;4941557;28;19918;-76
2022/12/20 07:03:03;;;;;;;;;;;;;;;-1.75;100.00;101087.25;4942478;28;20006;-75
2022/12/20 07:05:28;;;;;;;;;;;;;;;-1.77;100.00;101085.59;4942752;28;19961;-77
2022/12/20 07:07:54;;;;;;;;;;;;;;;-1.71;100.00;101090.66;4941167;28;20589;-77
2022/12/20 07:10:19;;;;;;;;;;;;;;;-1.70;100.00;101092.34;4943555;28;19923;-77
2022/12/20 07:12:45;;;;;;;;;;;;;;;-1.69;100.00;101087.13;4939920;28;20028;-77
2022/12/20 07:15:10;;;;;;;;;;;;;;;-1.68;100.00;101088.00;4940714;28;19919;-76
2022/12/20 07:17:35;;;;;;;;;;;;;;;-1.64;100.00;101081.88;4941457;28;19918;-77
2022/12/20 07:20:01;;;;;;;;;;;;;;;-1.56;100.00;101081.72;4941275;28;20045;-76
2022/12/20 07:22:26;;;;;;;;;;;;;;;-1.57;100.00;101074.84;4938784;28;20008;-76
2022/12/20 07:24:52;;;;;;;;;;;;;;;-1.59;100.00;101086.97;4943144;28;19918;-76
2022/12/20 07:27:17;;;;;;;;;;;;;;;-1.63;100.00;101091.34;4940667;28;19928;-76
2022/12/20 07:29:43;;;;;;;;;;;;;;;-1.69;100.00;101091.47;4942454;28;19929;-77
2022/12/20 07:32:10;;;;;;;;;;;;;;;-1.81;100.00;101081.34;4940783;28;20335;-76
2022/12/20 07:34:36;;;;;;;;;;;;;;;-1.78;100.00;101086.47;4939320;28;19918;-76
2022/12/20 07:37:01;;;;;;;;;;;;;;;-1.74;100.00;101082.94;4945434;28;19964;-77
2022/12/20 07:39:27;;;;;;;;;;;;;;;-1.68;100.00;101088.84;4943621;29;19918;-76
2022/12/20 07:41:55;;;;;;;;;;;;;;;-1.65;100.00;101082.78;4943540;28;19925;-75
2022/12/20 07:44:21;;;;;;;;;;;;;;;-1.59;100.00;101090.41;4939020;28;20310;-77
2022/12/20 07:46:47;;;;;;;;;;;;;;;-1.55;100.00;101068.78;4943967;28;19926;-75
2022/12/20 07:49:13;;;;;;;;;;;;;;;-1.51;100.00;101075.59;4945180;28;19965;-75
2022/12/20 07:51:47;;;;;;;;;;;;;;;-1.47;100.00;101079.81;4943749;28;19925;-75
2022/12/20 07:54:25;;;;;;;;;;;;;;;-1.42;100.00;101078.00;4945468;28;19919;-76
2022/12/20 07:56:53;;;;;;;;;;;;;;;-1.35;100.00;101076.97;4942707;28;20033;-76
2022/12/20 07:59:23;;;;;;;;;;;;;;;-1.29;100.00;101082.03;4948861;28;19918;-75
2022/12/20 08:01:49;;;;;;;;;;;;;;;-1.26;100.00;101086.31;4946562;28;19922;-77
2022/12/20 08:04:18;;;;;;;;;;;;;;;-1.23;100.00;101078.47;4948075;28;19927;-78
2022/12/20 08:06:43;;;;;;;;;;;;;;;-1.18;100.00;101078.38;4947650;28;19923;-77
2022/12/20 08:09:12;;;;;;;;;;;;;;;-1.13;100.00;101081.72;4948980;28;19925;-76
2022/12/20 08:11:38;;;;;;;;;;;;;;;-1.16;100.00;101086.97;4946039;28;20285;-76
2022/12/20 08:14:05;;;;;;;;;;;;;;;-1.23;100.00;101094.84;4950772;28;20005;-76
2022/12/20 08:16:31;;;;;;;;;;;;;;;-1.40;100.00;101089.16;4946487;28;20037;-76
2022/12/20 08:18:56;;;;;;;;;;;;;;;-1.41;100.00;101091.78;4944719;28;20048;-77
2022/12/20 08:21:22;;;;;;;;;;;;;;;-1.37;100.00;101099.47;4947084;28;19926;-76
2022/12/20 08:23:47;;;;;;;;;;;;;;;-1.31;100.00;101099.34;4948357;28;20008;-75
2022/12/20 08:26:13;;;;;;;;;;;;;;;-1.24;100.00;101098.31;4949636;29;19945;-76
2022/12/20 08:28:38;;;;;;;;;;;;;;;-1.19;100.00;101092.22;4951266;28;19926;-76
2022/12/20 08:31:05;;;;;;;;;;;;;;;-1.09;100.00;101096.31;4960583;28;19919;-77
2022/12/20 08:33:31;;;;;;;;;;;;;;;-1.04;100.00;101086.69;4947986;28;19932;-76
2022/12/20 08:36:03;;;;;;;;;;;;;;;-0.95;100.00;101091.72;4949820;28;20279;-77
2022/12/20 08:38:32;;;;;;;;;;;;;;;-0.86;100.00;101089.75;4939784;28;19919;-77
2022/12/20 08:41:04;;;;;;;;;;;;;;;-0.81;100.00;101081.88;4952108;28;19918;-76
2022/12/20 08:43:30;;;;;;;;;;;;;;;-0.69;100.00;101072.97;4949284;28;19925;-77
2022/12/20 08:45:55;;;;;;;;;;;;;;;-0.63;100.00;101073.69;4947020;28;20005;-77
2022/12/20 08:48:21;;;;;;;;;;;;;;;-0.55;100.00;101076.97;4949532;28;19944;-75
2022/12/20 08:50:46;;;;;;;;;;;;;;;-0.54;100.00;101086.44;4954217;28;20417;-76
2022/12/20 08:53:12;;;;;;;;;;;;;;;-0.48;100.00;101086.31;4951928;28;19918;-76
2022/12/20 08:55:37;;;;;;;;;;;;;;;-0.37;100.00;101093.81;4946662;28;20005;-75
2022/12/20 08:58:03;;;;;;;;;;;;;;;-0.30;100.00;101090.19;4948509;28;19919;-76
2022/12/20 09:00:28;;;;;;;;;;;;;;;-0.22;100.00;101092.59;4948769;28;19925;-76
2022/12/20 09:02:54;;;;;;;;;;;;;;;-0.14;100.00;101098.44;4947669;28;19966;-76
2022/12/20 09:05:19;;;;;;;;;;;;;;;-0.09;100.00;101099.19;4952694;28;19923;-75
2022/12/20 09:07:45;;;;;;;;;;;;;;;-0.09;100.00;101099.19;4946181;28;19938;-77
2022/12/20 09:10:11;;;;;;;;;;;;;;;-0.03;100.00;101101.63;4946067;28;19927;-76
2022/12/20 09:12:37;;;;;;;;;;;;;;;0.00;100.00;101106.75;4947558;28;19927;-75
2022/12/20 09:15:03;;;;;;;;;;;;;;;0.06;100.00;101096.19;4945491;28;20069;-78
2022/12/20 09:17:29;;;;;;;;;;;;;;;0.15;100.00;101110.69;4948071;28;20438;-77
2022/12/20 09:19:55;;;;;;;;;;;;;;;0.18;100.00;101105.41;4947284;28;19961;-76
2022/12/20 09:22:22;;;;;;;;;;;;;;;0.23;100.00;101106.16;4942052;28;20310;-76
2022/12/20 09:24:48;;;;;;;;;;;;;;;0.26;100.00;101108.66;4947176;28;19922;-78
2022/12/20 09:27:14;;;;;;;45.00;31.83;;;;;;;0.23;100.00;101104.41;4947689;28;19918;-76
2022/12/20 09:29:39;;;;;;;43.88;32.25;;;;;;;0.27;100.00;101102.59;4942505;28;20533;-75
2022/12/20 09:32:05;;;;;;;50.67;34.13;;;;;;;0.31;100.00;101097.25;4946748;28;20051;-75
2022/12/20 09:34:31;;;;;;;49.05;32.83;;;;;;;0.32;100.00;101093.78;4942572;28;20039;-75
2022/12/20 09:36:56;;;;;;;46.72;33.63;;;;;;;0.35;100.00;101098.03;4943253;28;20031;-76
2022/12/20 09:39:22;;;;;;;46.10;32.03;;;;;;;0.40;100.00;101107.41;4939565;28;20055;-77
2022/12/20 09:41:48;;;;;;;47.72;32.30;;;;;;;0.49;100.00;101100.25;4942966;28;20028;-77
2022/12/20 09:44:14;;;;;;;;;;;;;;;0.57;100.00;101103.50;4941601;28;20039;-78
2022/12/20 09:46:40;;;;;;;;;;;;;;;0.54;100.00;101108.75;4940107;28;20017;-74
2022/12/20 09:49:06;;;;;;;;;;;;;;;0.32;100.00;101106.75;4943322;28;19922;-75
2022/12/20 09:51:43;;;;;;;;;;;;;;;0.43;100.00;101095.22;4939617;28;19947;-75
2022/12/20 09:54:21;;;;;;;;;;;;;;;0.54;100.00;101095.78;4939542;28;19966;-75
2022/12/20 09:57:05;;;;;;;;;;;;;;;0.65;100.00;101088.56;4942296;28;19948;-75
2022/12/20 09:59:33;;;;;;;;;;;;;;;0.73;100.00;101091.78;4941987;28;19927;-75
2022/12/20 10:01:59;;;;;;;;;;;;;;;0.75;100.00;101092.59;4945706;28;19918;-74
2022/12/20 10:04:26;;;;;;;;;;;;;;;0.76;100.00;101081.31;4946719;28;20013;-77
2022/12/20 10:07:10;;;;;;;;;;;;;;;0.84;100.00;101079.34;4944208;28;19926;-75
2022/12/20 10:09:54;;;;;;;;;;;;;;;0.90;100.00;101076.56;4942355;28;19993;-75
2022/12/20 10:12:37;;;;;;;;;;;;;;;0.91;100.00;101075.66;4947212;28;19984;-75
2022/12/20 10:15:03;;;;;;;;;;;;;;;1.03;100.00;101061.44;4943763;29;19953;-77
2022/12/20 10:17:45;;;;;;;;;;;;;;;1.09;100.00;101056.06;4943710;28;19953;-76
2022/12/20 10:20:30;;;;;;;;;;;;;;;1.17;100.00;101052.34;4944321;29;19927;-76
2022/12/20 10:22:55;;;;;;;;;;;;;;;1.25;100.00;101046.88;4940642;28;19923;-76
2022/12/20 10:25:22;;;;;;;;;;;;;;;1.31;100.00;101046.69;4944140;28;19929;-76
2022/12/20 10:27:49;;;;;;;;;;;;;;;1.39;100.00;101044.72;4937621;28;19923;-75
2022/12/20 10:30:19;;;;;;;;;;;;;;;1.43;100.00;101035.06;4944169;28;21281;-76
2022/12/20 10:32:47;;;;;;;;;;;;;;;1.44;100.00;101034.16;4927251;29;19941;-76
2022/12/20 10:35:12;;;;;;;;;;;;;;;1.48;100.00;101031.41;4942902;28;19922;-76
2022/12/20 10:37:39;;;;;;;;;;;;;;;1.46;100.00;101029.78;4944339;28;19923;-76
2022/12/20 10:40:05;;;;;;;;;;;;;;;1.48;100.00;101043.56;4941587;28;19929;-76
2022/12/20 10:42:42;;;;;;;;;;;;;;;1.48;100.00;101036.59;4943421;28;19931;-75
2022/12/20 10:45:28;;;;;;;;;;;;;;;1.53;100.00;101039.09;4940645;28;20275;-76
2022/12/20 10:47:57;;;;;;;;;;;;;;;1.58;100.00;101044.97;4954739;28;20286;-76
2022/12/20 10:50:23;;;;;;;;;;;;;;;1.60;100.00;101041.41;4938482;28;20439;-77
2022/12/20 10:53:21;;;;;;;;;;;;;;;1.64;100.00;101035.22;4945587;28;19930;-75
2022/12/20 10:55:47;;;;;;;;;;;;;;;1.71;100.00;101035.03;4988013;28;19934;-75
2022/12/20 10:58:20;;;;;;;;;;;;;;;1.75;100.00;101027.06;4944060;28;19919;-75
2022/12/20 11:00:46;;;;;;;;;;;;;;;1.83;100.00;101019.81;4949362;28;20400;-78
2022/12/20 11:03:14;;;;;;;;;;;;;;;1.91;100.00;101017.81;4945965;28;19923;-74
2022/12/20 11:05:51;;;;;;;;;;;;;;;1.96;100.00;101010.69;4939882;28;19922;-75
2022/12/20 11:08:16;;;;;;;;;;;;;;;2.01;100.00;100998.38;4941396;28;19930;-75
2022/12/20 11:10:42;;;;;;;;;;;;;;;2.08;100.00;101000.75;4944076;28;19923;-76
2022/12/20 11:13:18;;;;;;;;;;;;;;;2.13;100.00;100988.41;4942189;28;19929;-76
2022/12/20 11:15:47;;;;;;;;;;;;;;;2.14;100.00;100985.75;4948593;29;20654;-75
2022/12/20 11:18:33;;;;;;;;;;;;;;;2.19;100.00;100983.00;4941188;29;19919;-76
2022/12/20 11:21:04;;;;;;;;;;;;;;;2.24;100.00;100973.28;4937811;28;19930;-75
2022/12/20 11:23:45;;;;;;;;;;;;;;;2.29;100.00;100961.78;4940493;28;20068;-76
2022/12/20 11:26:11;;;;;;;;;;;;;;;2.37;100.00;100938.03;4944587;28;19926;-76
2022/12/20 11:28:45;;;;;;;;;;;;;;;2.42;100.00;100947.38;4942480;28;19929;-76
2022/12/20 11:31:13;;;;;;;;;;;;;;;2.49;100.00;100945.41;4941305;28;20013;-76
2022/12/20 11:33:49;;;;;;;;;;;;;;;2.57;100.00;100948.56;4941542;28;19923;-76
2022/12/20 11:36:24;;;;;;;;;;;;;;;2.63;100.00;100950.94;4942717;28;20389;-76
2022/12/20 11:38:57;;;;;;;;;;;;;;;2.69;100.00;100939.44;4941640;28;19929;-76
2022/12/20 11:41:41;;;;;;;;;;;;;;;2.71;100.00;100937.63;4942622;28;20404;-76
2022/12/20 11:44:07;;;;;;;;;;;;;;;2.75;100.00;100919.19;4936101;28;20371;-76
2022/12/20 11:46:42;;;;;;;;;;;;;;;2.81;100.00;100918.97;4942673;28;19925;-76
2022/12/20 11:49:19;;;;;;;;;;;;;;;2.83;100.00;100917.13;4940750;28;19946;-76
2022/12/20 11:51:45;;;;;;;;;;;;;;;2.89;100.00;100922.09;4939876;28;20108;-76
2022/12/20 11:54:29;;;;;;;;;;;;;;;2.92;100.00;100909.84;4942143;28;20359;-76
2022/12/20 11:57:14;;;;;;;;;;;;;;;2.94;100.00;100910.66;4936190;28;19964;-78
2022/12/20 11:59:43;;;;;;;;;;;;;;;2.99;100.00;100903.47;4921758;28;19965;-76
2022/12/20 12:02:13;;;;;;;;;;;;;;;3.04;100.00;100904.13;4938322;28;20259;-76
2022/12/20 12:04:47;;;;;;;;;;;;;;;3.08;100.00;100896.13;4940070;28;20079;-76
2022/12/20 12:07:16;;;;;;;;;;;;;;;3.13;100.00;100898.53;4941426;28;20350;-75
2022/12/20 12:09:57;;;;;;;;;;;;;;;3.20;100.00;100902.59;4938766;28;20330;-75
2022/12/20 12:12:26;;;;;;;;;;;;;;;3.23;100.00;100899.88;4935679;28;20332;-77
2022/12/20 12:15:05;;;;;;;;;;;;;;;3.25;100.00;100898.88;4932030;28;19926;-76
2022/12/20 12:17:47;;;;;;;;;;;;;;;3.26;100.00;100894.50;4936662;28;20282;-77
2022/12/20 12:20:22;;;;;;;;;;;;;;;3.23;100.00;100892.03;4941771;28;20018;-76
2022/12/20 12:22:50;;;;;;;;;;;;;;;3.26;100.00;100884.06;4937560;28;19925;-77
2022/12/20 12:25:17;;;;;;;;;;;;;;;3.28;100.00;100882.25;4944843;28;20314;-76
2022/12/20 12:27:42;;;;;;;;;;;;;;;3.29;100.00;100878.75;4945112;28;19919;-76
2022/12/20 12:30:11;;;;;;;;;;;;;;;3.31;100.00;100876.91;4942939;28;20020;-76
2022/12/20 12:32:55;;;;;;;;;;;;;;;3.33;100.00;100879.44;4944848;28;19926;-77
2022/12/20 12:35:29;;;;;;;;;;;;;;;3.38;100.00;100867.91;4938286;28;19922;-75
2022/12/20 12:37:57;;;;;;;;;;;;;;;3.43;100.00;100865.09;4943812;28;20286;-76
2022/12/20 12:40:46;;;;;;;;;;;;;;;3.48;100.00;100869.19;4937793;28;20329;-77
2022/12/20 12:43:24;;;;;;;;;;;;;;;3.55;100.00;100860.19;4941750;29;19929;-77
2022/12/20 12:45:57;;;;;;;;;;;;;;;3.61;100.00;100854.72;4944196;28;19926;-77
2022/12/20 12:48:38;;;;;;;;;;;;;;;3.67;100.00;100854.44;4936208;28;19998;-78